createdAt,value
2022-11-17T00:01:57.937Z,2.60
2022-11-17T00:04:30.964Z,10.10
2022-11-17T00:06:58.090Z,2.47
2022-11-17T00:09:25.417Z,2.25
2022-11-17T00:12:11.127Z,2.88
2022-11-17T00:14:40.559Z,5.03
2022-11-17T00:17:11.439Z,5.85
2022-11-17T00:19:57.037Z,4.57
2022-11-17T00:22:24.587Z,2.28
2022-11-17T00:24:51.579Z,2.88
2022-11-17T00:27:18.437Z,5.05
2022-11-17T00:29:45.241Z,3.45
2022-11-17T00:32:33.790Z,9.60
2022-11-17T00:35:00.964Z,4.97
2022-11-17T00:37:30.200Z,7.80
2022-11-17T00:40:00.728Z,8.55
2022-11-17T00:42:28.108Z,14.70
2022-11-17T00:44:54.849Z,17.13
2022-11-17T00:47:23.315Z,12.32
2022-11-17T00:49:50.269Z,9.20
2022-11-17T00:52:17.080Z,6.05
2022-11-17T00:54:43.862Z,8.52
2022-11-17T00:57:10.731Z,20.17
2022-11-17T00:59:37.651Z,20.25
2022-11-17T01:02:04.478Z,9.27
2022-11-17T01:04:32.698Z,12.10
2022-11-17T01:06:59.592Z,11.00
2022-11-17T01:09:26.415Z,13.95
2022-11-17T01:11:53.951Z,19.65
2022-11-17T01:14:23.179Z,13.57
2022-11-17T01:16:50.624Z,15.55
2022-11-17T01:19:18.238Z,18.08
2022-11-17T01:21:47.174Z,18.08
2022-11-17T01:24:16.353Z,18.55
2022-11-17T01:26:45.093Z,13.48
2022-11-17T01:29:13.228Z,19.80
2022-11-17T01:31:43.481Z,20.42
2022-11-17T01:34:11.202Z,21.35
2022-11-17T01:36:59.919Z,16.40
2022-11-17T01:39:29.857Z,11.63
2022-11-17T01:41:57.245Z,17.00
2022-11-17T01:44:56.878Z,23.05
2022-11-17T01:47:30.504Z,18.70
2022-11-17T01:50:01.396Z,16.00
2022-11-17T01:52:30.530Z,18.65
2022-11-17T01:55:00.091Z,25.70
2022-11-17T01:57:33.109Z,16.95
2022-11-17T02:00:02.800Z,18.23
2022-11-17T02:02:29.826Z,22.45
2022-11-17T02:05:06.967Z,24.60
2022-11-17T02:07:37.880Z,37.42
2022-11-17T02:10:07.597Z,18.48
2022-11-17T02:12:36.891Z,24.83
2022-11-17T02:15:05.548Z,21.58
2022-11-17T02:17:36.505Z,22.13
2022-11-17T02:20:10.668Z,24.52
2022-11-17T02:23:12.208Z,26.13
2022-11-17T02:26:06.040Z,24.80
2022-11-17T02:28:37.662Z,34.72
2022-11-17T02:31:19.814Z,29.35
2022-11-17T02:33:55.881Z,21.70
2022-11-17T02:36:31.400Z,19.77
2022-11-17T02:39:04.839Z,25.52
2022-11-17T02:41:37.941Z,27.85
2022-11-17T02:44:10.791Z,23.95
2022-11-17T02:46:44.220Z,26.30
2022-11-17T02:49:17.540Z,16.77
2022-11-17T02:51:46.060Z,21.20
2022-11-17T02:54:13.427Z,15.57
2022-11-17T02:56:41.887Z,12.13
2022-11-17T02:59:13.859Z,26.88
2022-11-17T03:02:03.432Z,21.30
2022-11-17T03:04:37.815Z,21.95
2022-11-17T03:07:19.183Z,17.02
2022-11-17T03:09:53.108Z,36.00
2022-11-17T03:15:01.844Z,14.27
2022-11-17T03:17:35.078Z,14.52
2022-11-17T03:20:08.508Z,19.95
2022-11-17T03:22:43.488Z,13.35
2022-11-17T03:25:15.252Z,17.83
2022-11-17T03:27:47.341Z,22.98
2022-11-17T03:30:17.506Z,36.63
2022-11-17T03:32:50.387Z,19.23
2022-11-17T03:35:20.621Z,15.40
2022-11-17T03:37:52.049Z,12.20
2022-11-17T03:40:22.712Z,13.60
2022-11-17T03:42:54.016Z,13.65
2022-11-17T03:45:25.390Z,13.45
2022-11-17T03:47:57.815Z,8.13
2022-11-17T03:50:31.284Z,12.20
2022-11-17T03:52:58.096Z,7.85
2022-11-17T03:55:30.933Z,7.05
2022-11-17T03:58:04.542Z,8.65
2022-11-17T04:00:34.414Z,6.03
2022-11-17T04:03:01.349Z,6.68
2022-11-17T04:05:28.259Z,8.07
2022-11-17T04:07:55.113Z,3.78
2022-11-17T04:10:25.686Z,2.95
2022-11-17T04:13:12.411Z,4.70
2022-11-17T04:15:59.645Z,10.80
2022-11-17T04:18:27.170Z,7.75
2022-11-17T04:20:55.748Z,3.53
2022-11-17T04:23:23.998Z,7.80
2022-11-17T04:26:11.237Z,6.45
2022-11-17T04:28:40.944Z,3.08
2022-11-17T04:31:14.737Z,6.85
2022-11-17T04:33:43.085Z,2.15
2022-11-17T04:36:11.467Z,4.22
2022-11-17T04:38:41.834Z,8.25
2022-11-17T04:41:28.710Z,4.70
2022-11-17T04:43:56.294Z,7.10
2022-11-17T04:46:25.594Z,1.70
2022-11-17T04:48:53.875Z,3.90
2022-11-17T04:51:21.441Z,8.77
2022-11-17T04:53:48.656Z,4.68
2022-11-17T04:56:16.190Z,3.53
2022-11-17T04:58:43.245Z,1.33
2022-11-17T05:01:13.183Z,3.92
2022-11-17T05:03:43.268Z,6.97
2022-11-17T05:06:11.031Z,17.02
2022-11-17T05:08:39.382Z,4.43
2022-11-17T05:11:26.476Z,2.40
2022-11-17T05:13:53.616Z,1.20
2022-11-17T05:16:40.102Z,9.20
2022-11-17T05:19:10.754Z,6.95
2022-11-17T05:21:37.664Z,2.50
2022-11-17T05:24:05.097Z,6.30
2022-11-17T05:26:33.545Z,8.80
2022-11-17T05:29:03.151Z,2.53
2022-11-17T05:31:30.416Z,5.65
2022-11-17T05:33:57.949Z,5.38
2022-11-17T05:36:27.449Z,7.60
2022-11-17T05:38:55.154Z,11.82
2022-11-17T05:41:22.839Z,18.83
2022-11-17T05:43:50.495Z,13.95
2022-11-17T05:46:18.290Z,8.75
2022-11-17T05:48:45.774Z,5.28
2022-11-17T05:51:12.920Z,7.40
2022-11-17T05:53:41.125Z,10.10
2022-11-17T05:56:16.948Z,9.75
2022-11-17T05:58:47.948Z,9.45
2022-11-17T06:01:16.319Z,7.55
2022-11-17T06:03:49.147Z,12.00
2022-11-17T06:06:16.172Z,8.23
2022-11-17T06:08:44.337Z,6.63
2022-11-17T06:11:11.117Z,5.57
2022-11-17T06:13:38.478Z,10.95
2022-11-17T06:16:10.055Z,9.20
2022-11-17T06:18:39.780Z,9.10
2022-11-17T06:21:09.694Z,12.63
2022-11-17T06:23:38.201Z,18.58
2022-11-17T06:31:46.989Z,17.33
2022-11-17T06:37:12.313Z,16.50
2022-11-17T06:39:39.223Z,13.45
2022-11-17T06:45:32.743Z,20.45
2022-11-17T06:57:27.971Z,13.30
2022-11-17T06:59:56.205Z,25.98
2022-11-17T07:05:21.120Z,14.65
2022-11-17T07:07:48.326Z,9.80
2022-11-17T07:10:15.289Z,8.05
2022-11-17T07:12:42.188Z,15.23
2022-11-17T07:15:10.918Z,19.63
2022-11-17T07:17:37.733Z,9.38
2022-11-17T07:20:06.451Z,14.43
2022-11-17T07:28:18.869Z,7.90
2022-11-17T07:31:13.299Z,13.77
2022-11-17T07:36:09.861Z,11.25
2022-11-17T07:38:43.354Z,10.07
2022-11-17T07:44:12.825Z,5.68
2022-11-17T07:46:41.090Z,31.25
2022-11-17T07:49:07.947Z,22.08
2022-11-17T07:51:34.818Z,15.18
2022-11-17T07:54:01.888Z,13.50
2022-11-17T07:56:28.684Z,19.92
2022-11-17T07:58:55.556Z,14.60
2022-11-17T08:01:22.326Z,28.10
2022-11-17T08:03:50.679Z,21.30
2022-11-17T08:06:17.598Z,12.38
2022-11-17T08:08:44.525Z,11.10
2022-11-17T08:11:13.044Z,16.95
2022-11-17T08:13:41.031Z,19.48
2022-11-17T08:16:09.365Z,24.38
2022-11-17T08:18:37.274Z,8.77
2022-11-17T08:21:07.938Z,10.93
2022-11-17T08:23:35.295Z,15.85
2022-11-17T08:26:03.545Z,11.65
2022-11-17T08:28:30.510Z,18.65
2022-11-17T08:30:57.377Z,15.05
2022-11-17T08:33:24.273Z,16.48
2022-11-17T08:35:51.455Z,6.85
2022-11-17T08:38:19.788Z,15.65
2022-11-17T08:40:47.785Z,13.18
2022-11-17T08:43:14.564Z,16.58
2022-11-17T08:45:42.578Z,12.05
2022-11-17T08:48:09.354Z,8.23
2022-11-17T08:50:36.308Z,19.75
2022-11-17T08:53:03.200Z,5.97
2022-11-17T08:55:32.388Z,9.35
2022-11-17T08:58:01.478Z,18.73
2022-11-17T09:00:28.257Z,11.65
2022-11-17T09:02:55.074Z,17.95
2022-11-17T09:05:21.976Z,19.30
2022-11-17T09:07:49.215Z,10.32
2022-11-17T09:10:16.182Z,10.40
2022-11-17T09:12:44.421Z,9.63
2022-11-17T09:15:11.485Z,8.65
2022-11-17T09:17:38.261Z,21.17
2022-11-17T09:20:06.023Z,12.55
2022-11-17T09:22:32.815Z,12.55
2022-11-17T09:24:59.590Z,8.13
2022-11-17T09:27:26.376Z,15.95
2022-11-17T09:29:54.631Z,10.55
2022-11-17T09:32:21.471Z,7.50
2022-11-17T09:34:48.381Z,12.43
2022-11-17T09:37:15.211Z,11.52
2022-11-17T09:39:42.074Z,7.55
2022-11-17T09:42:13.743Z,6.18
2022-11-17T09:44:45.880Z,12.60
2022-11-17T09:47:32.742Z,5.13
2022-11-17T09:50:04.336Z,10.65
2022-11-17T09:52:37.069Z,13.40
2022-11-17T09:55:16.815Z,7.15
2022-11-17T09:57:48.387Z,7.40
2022-11-17T10:00:18.650Z,9.50
2022-11-17T10:02:47.839Z,8.02
2022-11-17T10:05:16.408Z,5.15
2022-11-17T10:07:48.444Z,4.60
2022-11-17T10:10:20.201Z,10.68
2022-11-17T10:12:51.646Z,11.40
2022-11-17T10:15:28.135Z,7.30
2022-11-17T10:17:56.785Z,8.18
2022-11-17T10:20:23.929Z,4.68
2022-11-17T10:22:53.791Z,7.95
2022-11-17T10:25:36.752Z,13.90
2022-11-17T10:28:04.673Z,5.38
2022-11-17T10:30:31.758Z,10.35
2022-11-17T10:33:01.885Z,7.05
2022-11-17T10:35:30.722Z,5.68
2022-11-17T10:37:59.944Z,12.35
2022-11-17T10:40:28.414Z,12.75
2022-11-17T10:43:03.156Z,9.98
2022-11-17T10:45:32.625Z,4.22
2022-11-17T10:48:20.393Z,9.25
2022-11-17T10:50:53.003Z,12.13
2022-11-17T10:55:56.230Z,14.80
2022-11-17T10:58:26.029Z,19.63
2022-11-17T11:00:55.927Z,12.90
2022-11-17T11:03:26.553Z,6.97
2022-11-17T11:06:06.156Z,17.30
2022-11-17T11:08:40.278Z,27.80
2022-11-17T11:11:16.015Z,10.50
2022-11-17T11:13:49.768Z,7.13
2022-11-17T11:16:16.630Z,20.70
2022-11-17T11:18:46.621Z,6.25
2022-11-17T11:21:24.330Z,7.30
2022-11-17T11:23:57.647Z,7.95
2022-11-17T11:26:44.530Z,7.07
2022-11-17T11:29:22.576Z,7.85
2022-11-17T11:32:04.390Z,5.35
2022-11-17T11:34:57.139Z,6.15
2022-11-17T11:37:29.968Z,3.72
2022-11-17T11:48:41.927Z,5.90
2022-11-17T12:12:38.893Z,11.95
2022-11-17T12:18:12.814Z,5.53
2022-11-17T12:21:05.996Z,3.35
2022-11-17T12:23:54.475Z,9.05
2022-11-17T12:26:32.792Z,3.63
2022-11-17T12:29:45.020Z,3.88
2022-11-17T12:32:51.188Z,2.75
2022-11-17T12:35:28.994Z,7.53
2022-11-17T12:41:19.712Z,3.35
2022-11-17T12:46:49.901Z,8.57
2022-11-17T12:49:30.467Z,4.60
2022-11-17T12:52:02.774Z,7.05
2022-11-17T12:54:38.762Z,9.95
2022-11-17T12:57:09.158Z,4.15
2022-11-17T13:00:02.990Z,9.05
2022-11-17T13:02:46.196Z,3.63
2022-11-17T13:05:18.372Z,6.93
2022-11-17T13:07:45.299Z,2.95
2022-11-17T13:10:25.068Z,6.82
2022-11-17T13:13:09.298Z,6.50
2022-11-17T13:15:36.903Z,5.75
2022-11-17T13:18:11.722Z,8.35
2022-11-17T13:40:43.426Z,10.38
2022-11-17T13:43:12.994Z,6.72
2022-11-17T13:45:40.680Z,9.88
2022-11-17T13:48:27.498Z,7.57
2022-11-17T13:50:54.422Z,22.90
2022-11-17T13:56:30.689Z,7.13
2022-11-17T13:58:59.540Z,11.48
2022-11-17T14:01:40.843Z,7.35
2022-11-17T14:04:19.597Z,7.88
2022-11-17T14:09:44.874Z,8.43
2022-11-17T14:12:26.846Z,11.57
2022-11-17T14:17:53.125Z,9.82
2022-11-17T14:20:31.224Z,14.38
2022-11-17T14:23:02.289Z,8.40
2022-11-17T14:25:29.231Z,14.98
2022-11-17T14:27:56.431Z,15.13
2022-11-17T14:30:23.421Z,9.75
2022-11-17T14:32:51.531Z,14.75
2022-11-17T14:37:50.248Z,9.80
2022-11-17T14:49:31.752Z,8.00
2022-11-17T14:52:00.413Z,12.20
2022-11-17T14:54:27.234Z,8.95
2022-11-17T14:56:54.272Z,14.23
2022-11-17T14:59:21.061Z,11.85
2022-11-17T15:01:47.988Z,8.23
2022-11-17T15:07:06.355Z,13.45
2022-11-17T15:09:33.430Z,6.25
2022-11-17T15:12:00.222Z,15.50
2022-11-17T15:14:27.192Z,11.60
2022-11-17T15:16:53.933Z,9.82
2022-11-17T15:19:20.761Z,10.38
2022-11-17T15:21:47.609Z,7.93
2022-11-17T15:24:15.934Z,11.93
2022-11-17T15:26:42.844Z,4.75
2022-11-17T15:29:12.774Z,7.45
2022-11-17T15:31:39.842Z,9.20
2022-11-17T15:34:06.825Z,8.23
2022-11-17T15:36:33.622Z,7.53
2022-11-17T15:39:00.433Z,8.70
2022-11-17T15:41:32.829Z,11.85
2022-11-17T15:44:00.103Z,3.72
2022-11-17T15:46:26.950Z,8.07
2022-11-17T15:48:55.594Z,4.38
2022-11-17T15:51:24.610Z,7.07
2022-11-17T15:53:52.791Z,6.80
2022-11-17T15:56:19.779Z,9.93
2022-11-17T15:58:49.563Z,8.70
2022-11-17T16:01:25.604Z,4.55
2022-11-17T16:03:56.390Z,17.20
2022-11-17T16:06:23.182Z,11.88
2022-11-17T16:08:50.157Z,22.13
2022-11-17T16:11:16.964Z,9.63
2022-11-17T16:13:43.826Z,11.70
2022-11-17T16:16:13.612Z,9.48
2022-11-17T16:18:41.050Z,8.07
2022-11-17T16:21:10.346Z,8.50
2022-11-17T16:23:38.851Z,11.73
2022-11-17T16:26:05.932Z,9.30
2022-11-17T16:28:32.964Z,9.60
2022-11-17T16:30:59.774Z,11.85
2022-11-17T16:33:27.917Z,11.63
2022-11-17T16:35:54.786Z,8.00
2022-11-17T16:38:21.600Z,14.10
2022-11-17T16:40:48.808Z,13.75
2022-11-17T16:43:15.610Z,10.25
2022-11-17T16:45:44.668Z,8.48
2022-11-17T16:48:12.461Z,7.75
2022-11-17T16:50:41.550Z,27.23
2022-11-17T16:53:08.671Z,14.93
2022-11-17T16:55:36.002Z,16.17
2022-11-17T16:58:03.508Z,10.98
2022-11-17T17:00:30.728Z,12.20
2022-11-17T17:02:57.915Z,21.13
2022-11-17T17:05:24.993Z,18.15
2022-11-17T17:07:53.312Z,9.75
2022-11-17T17:10:20.155Z,7.60
2022-11-17T17:12:46.997Z,9.13
2022-11-17T17:15:13.775Z,6.53
2022-11-17T17:17:40.542Z,17.58
2022-11-17T17:20:09.948Z,52.45
2022-11-17T17:22:36.752Z,212.05
2022-11-17T17:25:06.104Z,173.07
2022-11-17T17:27:32.964Z,55.80
2022-11-17T17:29:59.733Z,48.00
2022-11-17T17:32:26.602Z,38.85
2022-11-17T17:34:53.518Z,35.95
2022-11-17T17:37:20.310Z,69.35
2022-11-17T17:39:47.136Z,45.03
2022-11-17T17:42:15.359Z,86.80
2022-11-17T17:44:42.231Z,26.02
2022-11-17T17:47:09.111Z,20.10
2022-11-17T17:49:35.904Z,69.03
2022-11-17T17:52:02.780Z,63.65
2022-11-17T17:54:29.628Z,30.73
2022-11-17T17:56:57.782Z,15.43
2022-11-17T17:59:25.987Z,12.20
2022-11-17T18:01:53.357Z,16.52
2022-11-17T18:04:20.329Z,8.35
2022-11-17T18:06:48.436Z,12.82
2022-11-17T18:09:19.704Z,15.65
2022-11-17T18:11:50.527Z,13.68
2022-11-17T18:14:24.692Z,9.35
2022-11-17T18:25:22.434Z,15.60
2022-11-17T18:27:49.273Z,4.53
2022-11-17T18:30:16.931Z,5.50
2022-11-17T18:35:16.946Z,7.45
2022-11-17T18:37:43.813Z,5.20
2022-11-17T18:42:58.591Z,3.33
2022-11-17T18:45:25.416Z,4.43
2022-11-17T18:47:52.520Z,6.47
2022-11-17T18:53:05.957Z,3.90
2022-11-17T18:55:32.762Z,6.05
2022-11-17T19:00:45.186Z,7.57
2022-11-17T19:06:11.419Z,8.98
2022-11-17T19:08:39.760Z,6.82
2022-11-17T19:19:10.888Z,6.00
2022-11-17T19:21:37.770Z,6.97
2022-11-17T19:24:08.508Z,7.15
2022-11-17T19:26:36.334Z,5.40
2022-11-17T19:29:08.771Z,6.43
2022-11-17T19:49:09.086Z,4.82
2022-11-17T19:55:01.827Z,11.02
2022-11-17T20:00:37.219Z,7.18
2022-11-17T20:29:59.769Z,2.33
2022-11-17T20:44:24.224Z,3.03
2022-11-17T20:46:55.901Z,19.95
2022-11-17T21:04:56.718Z,4.35
2022-11-17T21:13:26.834Z,6.18
2022-11-17T21:18:50.079Z,3.75
2022-11-17T21:21:16.882Z,4.57
2022-11-17T21:23:46.923Z,6.70
2022-11-17T21:26:17.377Z,6.57
2022-11-17T21:28:46.561Z,4.75
2022-11-17T21:31:15.305Z,4.07
2022-11-17T21:33:42.821Z,3.92
2022-11-17T21:36:15.680Z,3.03
2022-11-17T21:38:43.135Z,6.32
2022-11-17T21:41:13.061Z,8.90
2022-11-17T21:43:41.261Z,6.25
2022-11-17T21:46:09.718Z,6.40
2022-11-17T21:48:37.672Z,4.97
2022-11-17T21:51:05.024Z,4.40
2022-11-17T21:53:33.366Z,5.70
2022-11-17T21:56:01.444Z,7.03
2022-11-17T21:58:28.649Z,4.85
2022-11-17T22:00:55.603Z,8.15
2022-11-17T22:03:26.262Z,6.50
2022-11-17T22:05:56.778Z,3.75
2022-11-17T22:08:26.414Z,8.80
2022-11-17T22:10:54.691Z,9.30
2022-11-17T22:13:21.454Z,5.20
2022-11-17T22:16:19.098Z,6.20
2022-11-17T22:18:46.090Z,6.20
2022-11-17T22:21:13.674Z,5.50
2022-11-17T22:23:40.453Z,3.65
2022-11-17T22:26:10.920Z,6.53
2022-11-17T22:28:37.758Z,5.07
2022-11-17T22:31:05.460Z,5.93
2022-11-17T22:33:32.286Z,4.97
2022-11-17T22:36:00.298Z,4.05
2022-11-17T22:38:30.084Z,9.38
2022-11-17T22:40:59.802Z,4.35
2022-11-17T22:43:28.361Z,5.13
2022-11-17T22:45:55.136Z,5.88
2022-11-17T22:48:24.389Z,4.07
2022-11-17T22:50:51.224Z,12.02
2022-11-17T22:53:18.454Z,10.93
2022-11-17T22:55:46.265Z,6.88
2022-11-17T22:58:15.868Z,5.35
2022-11-17T23:00:44.156Z,5.95
2022-11-17T23:03:12.640Z,14.27
2022-11-17T23:05:39.779Z,7.47
2022-11-17T23:08:09.803Z,5.82
2022-11-17T23:10:44.940Z,5.50
2022-11-17T23:13:11.731Z,3.92
2022-11-17T23:15:38.848Z,7.22
2022-11-17T23:18:09.675Z,3.47
2022-11-17T23:20:36.975Z,8.65
2022-11-17T23:23:03.965Z,4.45
2022-11-17T23:25:30.727Z,7.45
2022-11-17T23:27:59.827Z,4.28
2022-11-17T23:30:26.635Z,4.28
2022-11-17T23:32:55.073Z,5.78
2022-11-17T23:35:23.399Z,3.92
2022-11-17T23:49:01.581Z,4.25
2022-11-17T23:51:30.171Z,5.75
2022-11-17T23:56:35.641Z,4.72
2022-11-17T23:59:03.132Z,5.60
